createdAt,value
2022-11-18T00:00:13.651Z,31.93
2022-11-18T00:02:41.694Z,34.07
2022-11-18T00:05:11.139Z,47.83
2022-11-18T00:07:39.139Z,34.20
2022-11-18T00:10:07.658Z,45.73
2022-11-18T00:12:52.179Z,36.97
2022-11-18T00:15:20.226Z,42.73
2022-11-18T00:17:48.187Z,39.70
2022-11-18T00:20:17.866Z,48.27
2022-11-18T00:22:47.352Z,41.67
2022-11-18T00:25:15.384Z,42.03
2022-11-18T00:27:43.379Z,34.73
2022-11-18T00:30:12.622Z,31.40
2022-11-18T00:32:40.599Z,28.43
2022-11-18T00:35:09.189Z,26.37
2022-11-18T00:37:38.549Z,31.40
2022-11-18T00:40:07.622Z,27.03
2022-11-18T00:42:52.835Z,25.20
2022-11-18T00:45:21.753Z,25.70
2022-11-18T00:47:49.740Z,20.27
2022-11-18T00:50:18.129Z,25.10
2022-11-18T00:52:47.820Z,21.40
2022-11-18T00:55:15.862Z,32.53
2022-11-18T00:57:43.825Z,23.93
2022-11-18T01:00:12.503Z,24.93
2022-11-18T01:02:40.446Z,30.33
2022-11-18T01:05:08.994Z,26.57
2022-11-18T01:07:37.056Z,29.87
2022-11-18T01:10:07.140Z,22.50
2022-11-18T01:12:54.654Z,23.43
2022-11-18T01:15:22.822Z,21.30
2022-11-18T01:17:50.784Z,27.40
2022-11-18T01:20:18.857Z,24.77
2022-11-18T01:22:46.807Z,21.67
2022-11-18T01:25:16.256Z,27.40
2022-11-18T01:27:44.241Z,21.20
2022-11-18T01:30:13.327Z,26.80
2022-11-18T01:32:41.294Z,30.50
2022-11-18T01:35:10.151Z,31.00
2022-11-18T01:37:38.387Z,39.13
2022-11-18T01:40:08.179Z,23.40
2022-11-18T01:42:37.527Z,39.03
2022-11-18T01:45:22.351Z,18.03
2022-11-18T01:47:55.187Z,21.03
2022-11-18T01:50:24.714Z,18.17
2022-11-18T01:52:55.824Z,24.60
2022-11-18T01:55:28.165Z,47.33
2022-11-18T01:58:03.489Z,23.60
2022-11-18T02:00:31.514Z,32.73
2022-11-18T02:03:01.532Z,39.23
2022-11-18T02:05:30.734Z,20.73
2022-11-18T02:08:00.819Z,28.83
2022-11-18T02:10:28.851Z,55.13
2022-11-18T02:12:59.159Z,36.37
2022-11-18T02:15:42.543Z,27.13
2022-11-18T02:18:20.311Z,29.30
2022-11-18T02:20:51.803Z,35.87
2022-11-18T02:24:04.222Z,57.57
2022-11-18T02:27:03.783Z,45.83
2022-11-18T02:29:37.151Z,87.13
2022-11-18T02:32:11.502Z,22.90
2022-11-18T02:34:46.885Z,106.93
2022-11-18T02:37:22.082Z,32.20
2022-11-18T02:39:55.810Z,42.43
2022-11-18T02:42:26.205Z,135.57
2022-11-18T02:45:00.146Z,66.57
2022-11-18T02:47:30.425Z,102.57
2022-11-18T02:50:02.918Z,69.83
2022-11-18T02:52:33.573Z,93.73
2022-11-18T02:55:03.839Z,64.80
2022-11-18T02:57:33.731Z,66.67
2022-11-18T03:00:03.262Z,77.97
2022-11-18T03:02:42.464Z,76.70
2022-11-18T03:05:14.106Z,63.63
2022-11-18T03:07:45.305Z,37.47
2022-11-18T03:10:13.395Z,56.10
2022-11-18T03:12:47.699Z,93.27
2022-11-18T03:15:24.426Z,48.53
2022-11-18T03:17:59.926Z,21.80
2022-11-18T03:20:31.974Z,49.87
2022-11-18T03:23:06.330Z,27.53
2022-11-18T03:25:38.802Z,20.73
2022-11-18T03:28:15.008Z,23.70
2022-11-18T03:30:48.575Z,33.30
2022-11-18T03:33:22.857Z,22.53
2022-11-18T03:35:53.340Z,24.40
2022-11-18T03:38:27.662Z,29.57
2022-11-18T03:40:59.660Z,29.27
2022-11-18T03:43:33.106Z,28.13
2022-11-18T03:46:09.087Z,20.53
2022-11-18T03:48:43.107Z,22.33
2022-11-18T03:51:15.669Z,25.57
2022-11-18T03:53:49.572Z,25.90
2022-11-18T03:56:20.638Z,21.53
2022-11-18T03:58:52.438Z,28.87
2022-11-18T04:01:29.840Z,25.40
2022-11-18T04:03:57.940Z,33.80
2022-11-18T04:06:35.353Z,37.03
2022-11-18T04:09:10.657Z,44.30
2022-11-18T04:12:02.663Z,47.90
2022-11-18T04:14:31.686Z,83.13
2022-11-18T04:17:01.103Z,39.37
2022-11-18T04:19:29.418Z,40.23
2022-11-18T04:21:57.454Z,67.23
2022-11-18T04:24:25.410Z,50.17
2022-11-18T04:26:53.374Z,34.30
2022-11-18T04:29:21.383Z,38.03
2022-11-18T04:31:49.484Z,32.73
2022-11-18T04:34:18.905Z,31.53
2022-11-18T04:36:47.019Z,38.53
2022-11-18T04:39:15.424Z,30.20
2022-11-18T04:41:59.042Z,28.93
2022-11-18T04:44:28.567Z,25.03
2022-11-18T04:46:58.266Z,24.90
2022-11-18T04:49:28.847Z,35.07
2022-11-18T04:51:57.591Z,29.33
2022-11-18T04:54:26.890Z,31.27
2022-11-18T04:56:55.717Z,27.63
2022-11-18T04:59:25.633Z,29.63
2022-11-18T05:01:54.488Z,25.97
2022-11-18T05:04:24.741Z,27.37
2022-11-18T05:06:54.661Z,30.43
2022-11-18T05:09:28.633Z,26.83
2022-11-18T05:12:16.701Z,23.77
2022-11-18T05:14:49.573Z,25.60
2022-11-18T05:17:17.929Z,24.83
2022-11-18T05:19:45.864Z,24.33
2022-11-18T05:22:15.802Z,24.03
2022-11-18T05:24:43.986Z,19.97
2022-11-18T05:27:12.843Z,27.53
2022-11-18T05:29:40.942Z,21.10
2022-11-18T05:32:09.068Z,25.93
2022-11-18T05:34:37.032Z,23.30
2022-11-18T05:37:04.970Z,35.80
2022-11-18T05:39:34.730Z,37.67
2022-11-18T05:42:20.570Z,30.30
2022-11-18T05:44:51.883Z,49.47
2022-11-18T05:47:25.292Z,121.53
2022-11-18T05:49:53.299Z,30.30
2022-11-18T05:52:21.305Z,27.40
2022-11-18T05:54:52.258Z,43.63
2022-11-18T05:57:20.230Z,54.67
2022-11-18T05:59:48.150Z,39.43
2022-11-18T06:02:20.555Z,34.97
2022-11-18T06:04:51.587Z,36.90
2022-11-18T06:07:23.218Z,31.87
2022-11-18T06:09:55.353Z,28.73
2022-11-18T06:12:27.550Z,32.27
2022-11-18T06:14:59.627Z,31.93
2022-11-18T06:17:32.379Z,32.27
2022-11-18T06:20:00.763Z,29.93
2022-11-18T06:22:29.450Z,31.20
2022-11-18T06:24:58.778Z,31.10
2022-11-18T06:27:27.085Z,33.97
2022-11-18T06:29:55.064Z,37.83
2022-11-18T06:32:23.022Z,39.87
2022-11-18T06:34:51.002Z,50.43
2022-11-18T06:37:21.531Z,52.80
2022-11-18T06:39:49.589Z,29.40
2022-11-18T06:42:32.889Z,54.40
2022-11-18T06:45:02.040Z,59.57
2022-11-18T06:47:30.571Z,29.33
2022-11-18T06:49:58.543Z,28.10
2022-11-18T06:52:26.514Z,30.20
2022-11-18T06:54:54.439Z,25.67
2022-11-18T06:57:23.755Z,24.10
2022-11-18T06:59:51.864Z,25.97
2022-11-18T07:02:20.121Z,29.00
2022-11-18T07:04:48.094Z,31.40
2022-11-18T07:07:16.150Z,25.87
2022-11-18T07:09:44.630Z,21.33
2022-11-18T07:12:13.240Z,24.00
2022-11-18T07:14:42.546Z,24.60
2022-11-18T07:17:10.523Z,21.93
2022-11-18T07:19:39.751Z,31.63
2022-11-18T07:22:08.050Z,25.17
2022-11-18T07:24:36.115Z,35.00
2022-11-18T07:27:04.086Z,26.50
2022-11-18T07:29:32.037Z,21.90
2022-11-18T07:32:01.323Z,21.93
2022-11-18T07:34:29.245Z,26.00
2022-11-18T07:36:57.215Z,26.43
2022-11-18T07:39:25.175Z,25.47
2022-11-18T07:41:53.096Z,25.67
2022-11-18T07:44:21.292Z,26.23
2022-11-18T07:46:49.235Z,23.23
2022-11-18T07:49:18.979Z,22.07
2022-11-18T07:51:47.388Z,23.50
2022-11-18T07:54:17.085Z,25.07
2022-11-18T07:56:45.277Z,20.77
2022-11-18T07:59:13.247Z,20.10
2022-11-18T08:01:41.349Z,24.40
2022-11-18T08:04:11.530Z,25.63
2022-11-18T08:06:41.403Z,20.70
2022-11-18T08:09:10.204Z,20.50
2022-11-18T08:11:38.539Z,19.03
2022-11-18T08:14:06.803Z,22.63
2022-11-18T08:16:34.850Z,20.23
2022-11-18T08:19:02.811Z,20.80
2022-11-18T08:21:30.784Z,22.30
2022-11-18T08:24:00.167Z,19.10
2022-11-18T08:26:29.573Z,19.43
2022-11-18T08:28:58.726Z,28.30
2022-11-18T08:31:28.568Z,21.90
2022-11-18T08:33:57.544Z,19.20
2022-11-18T08:36:28.091Z,19.03
2022-11-18T08:38:56.915Z,23.70
2022-11-18T08:41:32.380Z,18.20
2022-11-18T08:44:00.450Z,20.53
2022-11-18T08:46:28.434Z,28.70
2022-11-18T08:48:56.479Z,19.30
2022-11-18T08:51:25.107Z,20.40
2022-11-18T08:53:53.469Z,22.77
2022-11-18T08:56:22.796Z,19.23
2022-11-18T08:58:52.439Z,18.77
2022-11-18T09:01:20.601Z,16.73
2022-11-18T09:03:48.922Z,20.93
2022-11-18T09:06:19.245Z,17.73
2022-11-18T09:08:47.873Z,19.40
2022-11-18T09:11:17.864Z,18.27
2022-11-18T09:14:46.505Z,18.50
2022-11-18T09:16:36.456Z,17.27
2022-11-18T09:19:31.553Z,12.27
2022-11-18T09:21:52.867Z,12.93
2022-11-18T09:24:21.118Z,14.57
2022-11-18T09:26:50.316Z,17.60
2022-11-18T09:29:18.460Z,17.70
2022-11-18T09:31:47.793Z,20.10
2022-11-18T09:34:16.154Z,15.20
2022-11-18T09:36:44.279Z,13.00
2022-11-18T09:39:12.372Z,16.70
2022-11-18T09:41:48.215Z,14.30
2022-11-18T09:44:31.270Z,14.87
2022-11-18T09:47:12.867Z,14.87
2022-11-18T09:49:43.448Z,15.43
2022-11-18T09:52:17.704Z,14.60
2022-11-18T09:54:46.035Z,16.40
2022-11-18T09:57:17.203Z,12.47
2022-11-18T09:59:45.984Z,13.13
2022-11-18T10:02:31.114Z,13.83
2022-11-18T10:05:04.161Z,16.23
2022-11-18T10:07:39.954Z,14.63
2022-11-18T10:10:16.253Z,14.47
2022-11-18T10:12:53.344Z,13.73
2022-11-18T10:15:25.132Z,11.87
2022-11-18T10:18:04.784Z,13.30
2022-11-18T10:20:43.243Z,12.13
2022-11-18T10:23:18.226Z,14.97
2022-11-18T10:25:46.215Z,12.80
2022-11-18T10:28:21.978Z,23.67
2022-11-18T10:30:50.398Z,16.07
2022-11-18T10:33:30.042Z,15.60
2022-11-18T10:36:25.869Z,17.13
2022-11-18T10:39:14.236Z,15.03
2022-11-18T10:41:50.598Z,14.97
2022-11-18T10:44:31.565Z,15.07
2022-11-18T10:47:32.827Z,14.20
2022-11-18T10:50:22.884Z,14.63
2022-11-18T10:52:54.051Z,13.50
2022-11-18T10:55:24.978Z,14.77
2022-11-18T10:57:57.258Z,15.70
2022-11-18T11:00:48.871Z,14.63
2022-11-18T11:03:24.354Z,13.60
2022-11-18T11:06:29.619Z,12.77
2022-11-18T11:08:59.791Z,17.73
2022-11-18T11:11:29.958Z,18.27
2022-11-18T11:14:16.942Z,16.27
2022-11-18T11:16:52.939Z,22.40
2022-11-18T11:19:24.513Z,15.90
2022-11-18T11:21:53.974Z,19.47
2022-11-18T11:24:27.257Z,15.90
2022-11-18T11:30:23.673Z,18.00
2022-11-18T11:33:16.716Z,15.47
2022-11-18T11:35:52.768Z,16.77
2022-11-18T11:38:33.299Z,18.50
2022-11-18T11:41:12.301Z,13.90
2022-11-18T11:43:55.008Z,16.03
2022-11-18T11:46:36.012Z,10.47
2022-11-18T11:49:27.622Z,19.73
2022-11-18T11:52:09.548Z,13.93
2022-11-18T11:55:03.737Z,12.63
2022-11-18T11:57:43.042Z,15.03
2022-11-18T12:00:13.972Z,13.63
2022-11-18T12:02:57.637Z,13.83
2022-11-18T12:05:31.118Z,18.17
2022-11-18T12:08:02.087Z,16.60
2022-11-18T12:10:42.732Z,13.83
2022-11-18T12:13:26.805Z,16.60
2022-11-18T12:16:07.248Z,13.53
2022-11-18T12:18:42.034Z,16.70
2022-11-18T12:21:10.136Z,13.13
2022-11-18T12:23:38.045Z,14.67
2022-11-18T12:26:10.236Z,18.17
2022-11-18T12:28:41.180Z,13.13
2022-11-18T12:31:37.182Z,13.50
2022-11-18T12:34:19.264Z,11.60
2022-11-18T12:36:48.173Z,15.00
2022-11-18T12:39:50.249Z,12.40
2022-11-18T12:42:57.580Z,15.67
2022-11-18T12:46:03.276Z,11.47
2022-11-18T12:48:37.454Z,12.47
2022-11-18T12:51:42.580Z,10.53
2022-11-18T12:54:33.097Z,13.07
2022-11-18T12:57:05.013Z,12.57
2022-11-18T12:59:37.078Z,11.23
2022-11-18T13:02:24.062Z,11.07
2022-11-18T13:05:06.976Z,13.07
2022-11-18T13:07:57.954Z,11.43
2022-11-18T13:10:32.426Z,24.87
2022-11-18T13:13:01.800Z,28.90
2022-11-18T13:15:48.566Z,28.70
2022-11-18T13:18:18.634Z,19.10
2022-11-18T13:20:56.101Z,18.90
2022-11-18T13:23:49.444Z,20.40
2022-11-18T13:26:21.431Z,13.93
2022-11-18T13:29:12.130Z,14.90
2022-11-18T13:31:50.677Z,15.47
2022-11-18T13:34:21.290Z,13.33
2022-11-18T13:36:51.470Z,8.90
2022-11-18T13:39:23.634Z,9.23
2022-11-18T13:42:02.881Z,11.83
2022-11-18T13:44:33.270Z,10.70
2022-11-18T13:47:10.225Z,11.73
2022-11-18T13:49:54.585Z,9.60
2022-11-18T13:52:28.976Z,10.37
2022-11-18T13:55:00.083Z,9.20
2022-11-18T13:57:29.416Z,9.43
2022-11-18T14:00:05.388Z,8.97
2022-11-18T14:02:40.967Z,10.27
2022-11-18T14:05:21.884Z,10.77
2022-11-18T14:08:08.646Z,11.03
2022-11-18T14:10:42.629Z,11.63
2022-11-18T14:13:23.433Z,17.33
2022-11-18T14:15:55.564Z,10.10
2022-11-18T14:18:31.514Z,9.90
2022-11-18T14:21:00.366Z,14.97
2022-11-18T14:23:31.097Z,17.87
2022-11-18T14:26:00.799Z,14.40
2022-11-18T14:28:33.817Z,38.13
2022-11-18T14:31:08.326Z,94.73
2022-11-18T14:33:38.678Z,26.73
2022-11-18T14:36:12.824Z,18.10
2022-11-18T14:41:48.761Z,9.20
2022-11-18T14:44:17.689Z,11.90
2022-11-18T14:46:47.874Z,8.97
2022-11-18T14:49:22.338Z,9.07
2022-11-18T14:51:51.792Z,8.10
2022-11-18T14:54:26.284Z,6.73
2022-11-18T14:56:57.983Z,6.20
2022-11-18T14:59:26.210Z,6.20
2022-11-18T15:01:54.806Z,6.63
2022-11-18T15:04:25.204Z,8.23
2022-11-18T15:06:53.393Z,9.37
2022-11-18T15:09:21.565Z,5.97
2022-11-18T15:11:49.541Z,8.73
2022-11-18T15:14:17.914Z,7.90
2022-11-18T15:16:46.070Z,9.53
2022-11-18T15:19:16.003Z,10.20
2022-11-18T15:21:46.247Z,7.93
2022-11-18T15:24:14.522Z,10.13
2022-11-18T15:26:44.530Z,9.83
2022-11-18T15:29:18.142Z,7.17
2022-11-18T15:31:46.275Z,9.10
2022-11-18T15:34:14.626Z,9.53
2022-11-18T15:36:42.722Z,5.60
2022-11-18T15:39:12.349Z,5.23
2022-11-18T15:41:42.702Z,9.20
2022-11-18T15:44:11.678Z,6.83
2022-11-18T15:46:39.865Z,7.60
2022-11-18T15:49:09.846Z,6.43
2022-11-18T15:51:40.144Z,7.10
2022-11-18T15:54:08.149Z,6.80
2022-11-18T15:56:39.670Z,8.47
2022-11-18T15:59:09.920Z,11.97
2022-11-18T16:01:39.487Z,7.90
2022-11-18T16:04:09.432Z,6.20
2022-11-18T16:06:37.974Z,5.90
2022-11-18T16:09:07.182Z,7.50
2022-11-18T16:11:52.697Z,7.00
2022-11-18T16:14:23.998Z,11.40
2022-11-18T16:16:53.986Z,14.00
2022-11-18T16:19:24.515Z,27.43
2022-11-18T16:21:54.194Z,9.53
2022-11-18T16:24:24.409Z,11.00
2022-11-18T16:26:52.584Z,13.93
2022-11-18T16:29:22.321Z,17.77
2022-11-18T16:31:54.321Z,36.60
2022-11-18T16:34:24.662Z,15.50
2022-11-18T16:36:54.416Z,7.30
2022-11-18T16:39:25.122Z,10.20
2022-11-18T16:41:55.135Z,11.90
2022-11-18T16:44:24.521Z,9.10
2022-11-18T16:46:54.236Z,13.03
2022-11-18T16:49:24.288Z,12.50
2022-11-18T16:51:53.510Z,17.00
2022-11-18T16:54:23.392Z,30.87
2022-11-18T16:56:52.489Z,23.00
2022-11-18T16:59:22.768Z,13.40
2022-11-18T17:01:53.604Z,20.40
2022-11-18T17:04:23.296Z,12.40
2022-11-18T17:06:51.346Z,15.90
2022-11-18T17:09:21.677Z,16.33
2022-11-18T17:11:50.470Z,15.73
2022-11-18T17:14:19.463Z,12.53
2022-11-18T17:16:47.758Z,8.30
2022-11-18T17:19:18.935Z,12.90
2022-11-18T17:21:49.030Z,9.20
2022-11-18T17:24:19.896Z,17.90
2022-11-18T17:26:52.965Z,10.63
2022-11-18T17:29:21.676Z,12.17
2022-11-18T17:31:50.041Z,8.80
2022-11-18T17:34:19.516Z,12.03
2022-11-18T17:36:47.739Z,15.80
2022-11-18T17:39:16.164Z,19.43
2022-11-18T17:42:01.524Z,15.63
2022-11-18T17:44:30.085Z,20.30
2022-11-18T17:46:58.024Z,83.63
2022-11-18T17:49:27.327Z,21.37
2022-11-18T17:51:55.398Z,22.33
2022-11-18T17:54:23.640Z,16.20
2022-11-18T17:56:52.859Z,14.77
2022-11-18T17:59:21.557Z,15.70
2022-11-18T18:01:53.025Z,17.83
2022-11-18T18:04:26.877Z,20.27
2022-11-18T18:06:55.074Z,24.53
2022-11-18T18:09:29.947Z,19.13
2022-11-18T18:11:59.459Z,19.53
2022-11-18T18:14:26.462Z,19.03
2022-11-18T18:16:55.045Z,14.63
2022-11-18T18:19:24.608Z,16.93
2022-11-18T18:22:01.547Z,16.10
2022-11-18T18:24:29.502Z,18.33
2022-11-18T18:26:57.689Z,14.53
2022-11-18T18:29:25.985Z,19.80
2022-11-18T18:31:54.034Z,19.60
2022-11-18T18:34:22.417Z,16.50
2022-11-18T18:36:50.645Z,16.57
2022-11-18T18:39:20.422Z,15.07
2022-11-18T18:41:49.398Z,17.40
2022-11-18T18:44:18.909Z,17.50
2022-11-18T18:46:48.596Z,18.90
2022-11-18T18:49:20.472Z,19.03
2022-11-18T18:51:50.120Z,19.73
2022-11-18T18:54:21.367Z,17.97
2022-11-18T18:56:49.451Z,18.50
2022-11-18T18:59:17.707Z,21.17
2022-11-18T19:01:46.508Z,17.43
2022-11-18T19:04:16.401Z,20.27
2022-11-18T19:06:53.590Z,22.67
2022-11-18T19:09:26.521Z,23.97
2022-11-18T19:12:12.694Z,23.40
2022-11-18T19:14:41.319Z,25.90
2022-11-18T19:17:11.711Z,28.23
2022-11-18T19:19:59.843Z,33.60
2022-11-18T19:22:30.773Z,27.97
2022-11-18T19:25:01.280Z,39.37
2022-11-18T19:27:30.195Z,36.27
2022-11-18T19:29:58.379Z,29.63
2022-11-18T19:32:26.596Z,34.27
2022-11-18T19:34:54.564Z,37.00
2022-11-18T19:37:22.568Z,34.83
2022-11-18T19:39:50.517Z,33.47
2022-11-18T19:42:20.134Z,33.90
2022-11-18T19:44:48.213Z,37.90
2022-11-18T19:47:16.301Z,34.93
2022-11-18T19:49:44.423Z,34.07
2022-11-18T19:52:12.451Z,39.93
2022-11-18T19:54:40.985Z,34.10
2022-11-18T19:57:09.600Z,27.80
2022-11-18T19:59:39.516Z,32.83
2022-11-18T20:02:08.363Z,26.03
2022-11-18T20:04:36.303Z,22.40
2022-11-18T20:07:04.490Z,22.50
2022-11-18T20:09:32.486Z,24.17
2022-11-18T20:12:00.531Z,30.60
2022-11-18T20:14:28.601Z,27.47
2022-11-18T20:16:58.076Z,32.87
2022-11-18T20:19:26.077Z,31.27
2022-11-18T20:21:54.042Z,27.20
2022-11-18T20:24:22.018Z,25.17
2022-11-18T20:26:50.053Z,30.90
2022-11-18T20:29:18.602Z,30.43
2022-11-18T20:31:46.888Z,32.90
2022-11-18T20:34:16.397Z,29.90
2022-11-18T20:36:44.672Z,32.07
2022-11-18T20:39:15.365Z,32.20
2022-11-18T20:41:43.709Z,28.93
2022-11-18T20:44:11.737Z,35.43
2022-11-18T20:46:39.917Z,34.63
2022-11-18T20:49:07.878Z,34.40
2022-11-18T20:51:37.246Z,31.53
2022-11-18T20:54:09.077Z,33.43
2022-11-18T20:56:37.115Z,35.90
2022-11-18T20:59:05.037Z,35.43
2022-11-18T21:01:33.869Z,38.93
2022-11-18T21:04:03.387Z,31.20
2022-11-18T21:06:32.840Z,32.90
2022-11-18T21:09:03.949Z,31.90
2022-11-18T21:11:34.111Z,28.87
2022-11-18T21:14:25.363Z,32.10
2022-11-18T21:16:55.173Z,31.23
2022-11-18T21:19:23.669Z,38.63
2022-11-18T21:21:52.580Z,43.17
2022-11-18T21:24:23.801Z,35.70
2022-11-18T21:26:54.391Z,32.70
2022-11-18T21:29:23.233Z,34.53
2022-11-18T21:31:51.653Z,32.67
2022-11-18T21:34:19.965Z,29.70
2022-11-18T21:36:53.220Z,36.57
2022-11-18T21:39:25.469Z,34.47
2022-11-18T21:41:56.602Z,35.67
2022-11-18T21:44:25.956Z,31.90
2022-11-18T21:46:54.192Z,43.20
2022-11-18T21:49:25.408Z,35.23
2022-11-18T21:51:53.729Z,34.90
2022-11-18T21:54:23.929Z,44.63
2022-11-18T21:56:53.578Z,30.30
2022-11-18T21:59:23.588Z,33.10
2022-11-18T22:01:51.545Z,32.60
2022-11-18T22:04:33.369Z,39.77
2022-11-18T22:07:01.366Z,40.83
2022-11-18T22:09:36.132Z,37.10
2022-11-18T22:12:05.712Z,36.70
2022-11-18T22:14:33.882Z,32.20
2022-11-18T22:17:01.890Z,33.43
2022-11-18T22:19:29.897Z,32.70
2022-11-18T22:21:57.937Z,33.70
2022-11-18T22:24:26.041Z,32.03
2022-11-18T22:26:55.347Z,30.10
2022-11-18T22:29:24.273Z,29.20
2022-11-18T22:31:52.286Z,32.83
2022-11-18T22:34:20.276Z,31.07
2022-11-18T22:36:48.268Z,27.63
2022-11-18T22:39:16.479Z,34.90
2022-11-18T22:42:02.065Z,25.70
2022-11-18T22:44:31.372Z,25.27
2022-11-18T22:46:59.498Z,29.87
2022-11-18T22:49:27.501Z,27.30
2022-11-18T22:51:55.461Z,26.03
2022-11-18T22:54:38.511Z,26.23
2022-11-18T22:57:07.698Z,31.97
2022-11-18T22:59:37.013Z,37.53
2022-11-18T23:02:04.964Z,35.20
2022-11-18T23:04:32.872Z,33.87
2022-11-18T23:07:00.967Z,33.83
2022-11-18T23:09:29.106Z,36.90
2022-11-18T23:12:14.749Z,35.53
2022-11-18T23:14:44.230Z,33.97
2022-11-18T23:17:12.218Z,35.17
2022-11-18T23:19:43.473Z,34.20
2022-11-18T23:22:11.728Z,43.07
2022-11-18T23:24:39.686Z,36.17
2022-11-18T23:27:07.614Z,38.50
2022-11-18T23:29:35.598Z,47.40
2022-11-18T23:32:05.357Z,34.37
2022-11-18T23:34:33.299Z,42.87
2022-11-18T23:37:01.230Z,37.20
2022-11-18T23:39:29.256Z,39.20
2022-11-18T23:41:57.153Z,41.60
2022-11-18T23:44:45.088Z,36.30
2022-11-18T23:47:14.698Z,44.67
2022-11-18T23:49:42.741Z,36.13
2022-11-18T23:52:10.984Z,40.17
2022-11-18T23:54:38.905Z,40.93
2022-11-18T23:57:06.830Z,39.43
2022-11-18T23:59:34.761Z,44.30
